sensor_id;sensor_type;location;lat;lon;timestamp;P1;durP1;ratioP1;P2;durP2;ratioP2
52934;SDS011;38802;50.198;19.796;2023-05-29T00:00:32;6.00;;;1.80;;
52934;SDS011;38802;50.198;19.796;2023-05-29T00:03:20;3.60;;;2.30;;
52934;SDS011;38802;50.198;19.796;2023-05-29T00:05:49;2.70;;;1.80;;
52934;SDS011;38802;50.198;19.796;2023-05-29T00:08:17;3.50;;;1.80;;
52934;SDS011;38802;50.198;19.796;2023-05-29T00:10:45;6.10;;;1.80;;
52934;SDS011;38802;50.198;19.796;2023-05-29T00:13:13;3.00;;;1.80;;
52934;SDS011;38802;50.198;19.796;2023-05-29T00:15:41;1.60;;;1.50;;
52934;SDS011;38802;50.198;19.796;2023-05-29T00:18:09;7.80;;;1.90;;
52934;SDS011;38802;50.198;19.796;2023-05-29T00:20:37;5.50;;;2.00;;
52934;SDS011;38802;50.198;19.796;2023-05-29T00:23:06;8.10;;;1.80;;
52934;SDS011;38802;50.198;19.796;2023-05-29T00:25:34;4.80;;;1.50;;
52934;SDS011;38802;50.198;19.796;2023-05-29T00:28:02;2.90;;;1.80;;
52934;SDS011;38802;50.198;19.796;2023-05-29T00:30:30;7.60;;;2.60;;
52934;SDS011;38802;50.198;19.796;2023-05-29T00:32:58;6.00;;;1.80;;
52934;SDS011;38802;50.198;19.796;2023-05-29T00:35:26;2.80;;;2.40;;
52934;SDS011;38802;50.198;19.796;2023-05-29T00:37:54;3.30;;;1.70;;
52934;SDS011;38802;50.198;19.796;2023-05-29T00:40:23;2.30;;;2.00;;
52934;SDS011;38802;50.198;19.796;2023-05-29T00:42:51;5.20;;;1.90;;
52934;SDS011;38802;50.198;19.796;2023-05-29T00:45:19;2.60;;;1.50;;
52934;SDS011;38802;50.198;19.796;2023-05-29T00:47:47;3.70;;;2.10;;
52934;SDS011;38802;50.198;19.796;2023-05-29T00:50:16;3.30;;;1.80;;
52934;SDS011;38802;50.198;19.796;2023-05-29T00:52:44;3.40;;;1.80;;
52934;SDS011;38802;50.198;19.796;2023-05-29T00:55:13;3.40;;;1.70;;
52934;SDS011;38802;50.198;19.796;2023-05-29T00:57:42;5.70;;;1.90;;
52934;SDS011;38802;50.198;19.796;2023-05-29T01:00:10;3.50;;;2.00;;
52934;SDS011;38802;50.198;19.796;2023-05-29T01:02:44;4.60;;;2.20;;
52934;SDS011;38802;50.198;19.796;2023-05-29T01:05:13;3.90;;;1.90;;
52934;SDS011;38802;50.198;19.796;2023-05-29T01:07:42;4.00;;;1.60;;
52934;SDS011;38802;50.198;19.796;2023-05-29T01:10:10;3.60;;;1.70;;
52934;SDS011;38802;50.198;19.796;2023-05-29T01:18:20;5.80;;;2.30;;
52934;SDS011;38802;50.198;19.796;2023-05-29T01:20:58;4.00;;;1.80;;
52934;SDS011;38802;50.198;19.796;2023-05-29T01:23:52;2.90;;;2.20;;
52934;SDS011;38802;50.198;19.796;2023-05-29T01:29:14;4.20;;;2.00;;
52934;SDS011;38802;50.198;19.796;2023-05-29T01:31:45;2.60;;;1.90;;
52934;SDS011;38802;50.198;19.796;2023-05-29T01:34:13;4.30;;;2.00;;
52934;SDS011;38802;50.198;19.796;2023-05-29T01:36:43;3.40;;;2.40;;
52934;SDS011;38802;50.198;19.796;2023-05-29T01:39:14;2.90;;;1.60;;
52934;SDS011;38802;50.198;19.796;2023-05-29T01:41:43;4.90;;;2.10;;
52934;SDS011;38802;50.198;19.796;2023-05-29T01:44:13;2.20;;;1.80;;
52934;SDS011;38802;50.198;19.796;2023-05-29T01:46:42;5.00;;;2.20;;
52934;SDS011;38802;50.198;19.796;2023-05-29T01:49:13;5.30;;;2.00;;
52934;SDS011;38802;50.198;19.796;2023-05-29T01:51:43;3.70;;;1.80;;
52934;SDS011;38802;50.198;19.796;2023-05-29T01:54:11;3.90;;;1.60;;
52934;SDS011;38802;50.198;19.796;2023-05-29T01:56:41;3.90;;;1.80;;
52934;SDS011;38802;50.198;19.796;2023-05-29T01:59:09;2.20;;;1.90;;
52934;SDS011;38802;50.198;19.796;2023-05-29T02:01:41;6.80;;;2.20;;
52934;SDS011;38802;50.198;19.796;2023-05-29T02:04:09;2.40;;;1.90;;
52934;SDS011;38802;50.198;19.796;2023-05-29T02:06:37;10.50;;;2.00;;
52934;SDS011;38802;50.198;19.796;2023-05-29T02:09:06;7.30;;;1.70;;
52934;SDS011;38802;50.198;19.796;2023-05-29T02:11:34;2.10;;;1.80;;
52934;SDS011;38802;50.198;19.796;2023-05-29T02:14:02;3.30;;;2.00;;
52934;SDS011;38802;50.198;19.796;2023-05-29T02:16:32;6.50;;;2.20;;
52934;SDS011;38802;50.198;19.796;2023-05-29T02:19:01;8.10;;;1.80;;
52934;SDS011;38802;50.198;19.796;2023-05-29T02:21:30;3.30;;;1.90;;
52934;SDS011;38802;50.198;19.796;2023-05-29T02:23:59;5.50;;;2.60;;
52934;SDS011;38802;50.198;19.796;2023-05-29T02:26:27;2.50;;;2.00;;
52934;SDS011;38802;50.198;19.796;2023-05-29T02:28:55;3.20;;;2.60;;
52934;SDS011;38802;50.198;19.796;2023-05-29T02:31:23;4.30;;;2.00;;
52934;SDS011;38802;50.198;19.796;2023-05-29T02:33:52;4.50;;;2.10;;
52934;SDS011;38802;50.198;19.796;2023-05-29T02:36:22;3.20;;;1.80;;
52934;SDS011;38802;50.198;19.796;2023-05-29T02:38:51;2.70;;;1.80;;
52934;SDS011;38802;50.198;19.796;2023-05-29T02:41:19;2.30;;;1.60;;
52934;SDS011;38802;50.198;19.796;2023-05-29T02:43:47;4.50;;;2.40;;
52934;SDS011;38802;50.198;19.796;2023-05-29T02:46:15;4.10;;;1.60;;
52934;SDS011;38802;50.198;19.796;2023-05-29T02:48:42;5.00;;;2.00;;
52934;SDS011;38802;50.198;19.796;2023-05-29T02:51:12;2.40;;;1.80;;
52934;SDS011;38802;50.198;19.796;2023-05-29T02:53:40;2.50;;;2.00;;
52934;SDS011;38802;50.198;19.796;2023-05-29T02:56:08;2.30;;;1.90;;
52934;SDS011;38802;50.198;19.796;2023-05-29T02:58:37;2.40;;;2.00;;
52934;SDS011;38802;50.198;19.796;2023-05-29T03:01:05;2.20;;;1.80;;
52934;SDS011;38802;50.198;19.796;2023-05-29T03:03:33;3.40;;;1.80;;
52934;SDS011;38802;50.198;19.796;2023-05-29T03:06:01;2.30;;;1.90;;
52934;SDS011;38802;50.198;19.796;2023-05-29T03:08:31;2.90;;;2.10;;
52934;SDS011;38802;50.198;19.796;2023-05-29T03:11:01;5.30;;;2.30;;
52934;SDS011;38802;50.198;19.796;2023-05-29T03:13:30;8.30;;;2.10;;
52934;SDS011;38802;50.198;19.796;2023-05-29T03:16:04;3.00;;;1.60;;
52934;SDS011;38802;50.198;19.796;2023-05-29T03:18:33;2.40;;;2.00;;
52934;SDS011;38802;50.198;19.796;2023-05-29T03:21:01;3.10;;;2.10;;
52934;SDS011;38802;50.198;19.796;2023-05-29T03:23:32;5.40;;;2.30;;
52934;SDS011;38802;50.198;19.796;2023-05-29T03:26:01;4.10;;;2.10;;
52934;SDS011;38802;50.198;19.796;2023-05-29T03:28:31;5.50;;;1.90;;
52934;SDS011;38802;50.198;19.796;2023-05-29T03:31:00;5.00;;;1.80;;
52934;SDS011;38802;50.198;19.796;2023-05-29T03:33:29;9.50;;;2.20;;
52934;SDS011;38802;50.198;19.796;2023-05-29T03:36:04;2.80;;;1.70;;
52934;SDS011;38802;50.198;19.796;2023-05-29T03:38:33;5.30;;;1.70;;
52934;SDS011;38802;50.198;19.796;2023-05-29T03:41:01;3.90;;;2.00;;
52934;SDS011;38802;50.198;19.796;2023-05-29T03:43:29;4.50;;;1.70;;
52934;SDS011;38802;50.198;19.796;2023-05-29T03:45:57;8.40;;;1.70;;
52934;SDS011;38802;50.198;19.796;2023-05-29T03:48:27;4.80;;;1.80;;
52934;SDS011;38802;50.198;19.796;2023-05-29T03:50:55;6.50;;;2.20;;
52934;SDS011;38802;50.198;19.796;2023-05-29T03:53:29;5.10;;;2.10;;
52934;SDS011;38802;50.198;19.796;2023-05-29T03:55:57;4.10;;;2.10;;
52934;SDS011;38802;50.198;19.796;2023-05-29T03:58:25;2.90;;;2.10;;
52934;SDS011;38802;50.198;19.796;2023-05-29T04:00:53;4.00;;;2.00;;
52934;SDS011;38802;50.198;19.796;2023-05-29T04:03:21;7.00;;;2.10;;
52934;SDS011;38802;50.198;19.796;2023-05-29T04:05:50;4.10;;;2.40;;
52934;SDS011;38802;50.198;19.796;2023-05-29T04:08:19;2.10;;;1.90;;
52934;SDS011;38802;50.198;19.796;2023-05-29T04:10:47;2.20;;;1.70;;
52934;SDS011;38802;50.198;19.796;2023-05-29T04:13:15;2.30;;;1.70;;
52934;SDS011;38802;50.198;19.796;2023-05-29T04:15:43;3.90;;;2.40;;
52934;SDS011;38802;50.198;19.796;2023-05-29T04:18:11;4.40;;;1.70;;
52934;SDS011;38802;50.198;19.796;2023-05-29T04:20:39;3.70;;;2.20;;
52934;SDS011;38802;50.198;19.796;2023-05-29T04:23:08;5.50;;;1.70;;
52934;SDS011;38802;50.198;19.796;2023-05-29T04:25:36;6.50;;;2.20;;
52934;SDS011;38802;50.198;19.796;2023-05-29T04:28:04;3.80;;;2.20;;
52934;SDS011;38802;50.198;19.796;2023-05-29T04:30:33;3.30;;;2.10;;
52934;SDS011;38802;50.198;19.796;2023-05-29T04:33:02;2.30;;;1.90;;
52934;SDS011;38802;50.198;19.796;2023-05-29T04:35:31;11.50;;;2.10;;
52934;SDS011;38802;50.198;19.796;2023-05-29T04:38:02;4.10;;;2.00;;
52934;SDS011;38802;50.198;19.796;2023-05-29T04:40:31;2.70;;;1.90;;
52934;SDS011;38802;50.198;19.796;2023-05-29T04:43:00;3.10;;;2.30;;
52934;SDS011;38802;50.198;19.796;2023-05-29T04:45:37;3.50;;;1.70;;
52934;SDS011;38802;50.198;19.796;2023-05-29T04:48:05;3.20;;;1.60;;
52934;SDS011;38802;50.198;19.796;2023-05-29T04:50:33;6.40;;;2.20;;
52934;SDS011;38802;50.198;19.796;2023-05-29T04:53:03;4.10;;;1.80;;
52934;SDS011;38802;50.198;19.796;2023-05-29T04:55:31;4.30;;;2.10;;
52934;SDS011;38802;50.198;19.796;2023-05-29T04:57:59;3.50;;;2.20;;
52934;SDS011;38802;50.198;19.796;2023-05-29T05:00:28;5.00;;;2.00;;
52934;SDS011;38802;50.198;19.796;2023-05-29T05:02:56;7.40;;;3.70;;
52934;SDS011;38802;50.198;19.796;2023-05-29T05:05:24;5.60;;;2.70;;
52934;SDS011;38802;50.198;19.796;2023-05-29T05:07:56;2.60;;;1.50;;
52934;SDS011;38802;50.198;19.796;2023-05-29T05:10:25;4.40;;;2.20;;
52934;SDS011;38802;50.198;19.796;2023-05-29T05:12:53;9.90;;;2.10;;
52934;SDS011;38802;50.198;19.796;2023-05-29T05:15:21;5.20;;;1.80;;
52934;SDS011;38802;50.198;19.796;2023-05-29T05:17:49;5.00;;;1.80;;
52934;SDS011;38802;50.198;19.796;2023-05-29T05:20:18;3.00;;;2.50;;
52934;SDS011;38802;50.198;19.796;2023-05-29T05:22:49;2.90;;;2.10;;
52934;SDS011;38802;50.198;19.796;2023-05-29T05:25:17;3.40;;;2.50;;
52934;SDS011;38802;50.198;19.796;2023-05-29T05:27:45;6.60;;;2.30;;
52934;SDS011;38802;50.198;19.796;2023-05-29T05:30:13;3.20;;;2.20;;
52934;SDS011;38802;50.198;19.796;2023-05-29T05:32:42;8.80;;;2.10;;
52934;SDS011;38802;50.198;19.796;2023-05-29T05:35:10;4.00;;;2.00;;
52934;SDS011;38802;50.198;19.796;2023-05-29T05:37:39;7.00;;;2.30;;
52934;SDS011;38802;50.198;19.796;2023-05-29T05:40:08;5.60;;;2.00;;
52934;SDS011;38802;50.198;19.796;2023-05-29T05:42:43;5.30;;;2.00;;
52934;SDS011;38802;50.198;19.796;2023-05-29T05:45:12;3.50;;;2.20;;
52934;SDS011;38802;50.198;19.796;2023-05-29T05:47:43;5.00;;;1.90;;
52934;SDS011;38802;50.198;19.796;2023-05-29T05:50:12;4.80;;;2.30;;
52934;SDS011;38802;50.198;19.796;2023-05-29T05:52:40;6.70;;;2.20;;
52934;SDS011;38802;50.198;19.796;2023-05-29T05:55:08;3.20;;;1.90;;
52934;SDS011;38802;50.198;19.796;2023-05-29T05:57:38;3.90;;;2.60;;
52934;SDS011;38802;50.198;19.796;2023-05-29T06:00:07;3.40;;;2.10;;
52934;SDS011;38802;50.198;19.796;2023-05-29T06:02:44;4.10;;;2.00;;
52934;SDS011;38802;50.198;19.796;2023-05-29T06:05:23;2.80;;;2.30;;
52934;SDS011;38802;50.198;19.796;2023-05-29T06:07:51;3.70;;;2.10;;
52934;SDS011;38802;50.198;19.796;2023-05-29T06:10:20;5.00;;;1.90;;
52934;SDS011;38802;50.198;19.796;2023-05-29T06:12:48;3.30;;;1.90;;
52934;SDS011;38802;50.198;19.796;2023-05-29T06:15:22;3.30;;;2.00;;
52934;SDS011;38802;50.198;19.796;2023-05-29T06:17:50;6.40;;;2.00;;
52934;SDS011;38802;50.198;19.796;2023-05-29T06:20:19;4.00;;;1.90;;
52934;SDS011;38802;50.198;19.796;2023-05-29T06:22:48;3.40;;;1.90;;
52934;SDS011;38802;50.198;19.796;2023-05-29T06:25:18;3.60;;;2.00;;
52934;SDS011;38802;50.198;19.796;2023-05-29T06:27:47;2.80;;;1.90;;
52934;SDS011;38802;50.198;19.796;2023-05-29T06:30:16;4.00;;;2.10;;
52934;SDS011;38802;50.198;19.796;2023-05-29T06:32:45;3.50;;;2.30;;
52934;SDS011;38802;50.198;19.796;2023-05-29T06:35:13;7.70;;;2.00;;
52934;SDS011;38802;50.198;19.796;2023-05-29T06:37:44;2.70;;;2.00;;
52934;SDS011;38802;50.198;19.796;2023-05-29T06:40:13;4.60;;;2.10;;
52934;SDS011;38802;50.198;19.796;2023-05-29T06:42:44;5.80;;;2.00;;
52934;SDS011;38802;50.198;19.796;2023-05-29T06:45:16;2.60;;;2.00;;
52934;SDS011;38802;50.198;19.796;2023-05-29T06:47:45;4.00;;;2.00;;
52934;SDS011;38802;50.198;19.796;2023-05-29T06:50:13;7.20;;;2.00;;
52934;SDS011;38802;50.198;19.796;2023-05-29T06:52:44;5.50;;;2.60;;
52934;SDS011;38802;50.198;19.796;2023-05-29T06:55:20;3.40;;;2.20;;
52934;SDS011;38802;50.198;19.796;2023-05-29T06:57:49;4.50;;;2.30;;
52934;SDS011;38802;50.198;19.796;2023-05-29T07:00:17;6.20;;;2.10;;
52934;SDS011;38802;50.198;19.796;2023-05-29T07:02:53;5.50;;;2.00;;
52934;SDS011;38802;50.198;19.796;2023-05-29T07:05:22;6.40;;;2.00;;
52934;SDS011;38802;50.198;19.796;2023-05-29T07:07:52;7.10;;;2.40;;
52934;SDS011;38802;50.198;19.796;2023-05-29T07:10:21;2.70;;;2.20;;
52934;SDS011;38802;50.198;19.796;2023-05-29T07:12:49;2.60;;;1.60;;
52934;SDS011;38802;50.198;19.796;2023-05-29T07:15:17;4.10;;;2.40;;
52934;SDS011;38802;50.198;19.796;2023-05-29T07:17:46;5.50;;;2.20;;
52934;SDS011;38802;50.198;19.796;2023-05-29T07:20:18;2.50;;;1.80;;
52934;SDS011;38802;50.198;19.796;2023-05-29T07:22:48;4.80;;;2.50;;
52934;SDS011;38802;50.198;19.796;2023-05-29T07:25:16;4.70;;;1.90;;
52934;SDS011;38802;50.198;19.796;2023-05-29T07:27:44;7.30;;;2.00;;
52934;SDS011;38802;50.198;19.796;2023-05-29T07:30:13;2.00;;;1.80;;
52934;SDS011;38802;50.198;19.796;2023-05-29T07:32:43;6.60;;;2.30;;
52934;SDS011;38802;50.198;19.796;2023-05-29T07:35:12;3.70;;;2.10;;
52934;SDS011;38802;50.198;19.796;2023-05-29T07:37:41;7.40;;;2.10;;
52934;SDS011;38802;50.198;19.796;2023-05-29T07:40:11;2.60;;;1.90;;
52934;SDS011;38802;50.198;19.796;2023-05-29T07:42:57;5.30;;;2.30;;
52934;SDS011;38802;50.198;19.796;2023-05-29T07:45:31;1.90;;;1.50;;
52934;SDS011;38802;50.198;19.796;2023-05-29T07:48:00;2.30;;;1.80;;
52934;SDS011;38802;50.198;19.796;2023-05-29T07:50:29;5.20;;;1.80;;
52934;SDS011;38802;50.198;19.796;2023-05-29T07:52:57;5.10;;;2.70;;
52934;SDS011;38802;50.198;19.796;2023-05-29T07:55:27;4.90;;;1.90;;
52934;SDS011;38802;50.198;19.796;2023-05-29T08:13:30;2.80;;;2.00;;
52934;SDS011;38802;50.198;19.796;2023-05-29T08:16:02;4.40;;;2.30;;
52934;SDS011;38802;50.198;19.796;2023-05-29T08:18:30;5.80;;;2.00;;
52934;SDS011;38802;50.198;19.796;2023-05-29T08:21:02;4.70;;;1.80;;
52934;SDS011;38802;50.198;19.796;2023-05-29T08:23:30;5.40;;;2.30;;
52934;SDS011;38802;50.198;19.796;2023-05-29T08:26:02;4.90;;;2.20;;
52934;SDS011;38802;50.198;19.796;2023-05-29T08:28:31;15.40;;;2.10;;
52934;SDS011;38802;50.198;19.796;2023-05-29T08:30:59;4.80;;;1.70;;
52934;SDS011;38802;50.198;19.796;2023-05-29T08:33:27;3.70;;;2.00;;
52934;SDS011;38802;50.198;19.796;2023-05-29T08:35:56;5.80;;;1.50;;
52934;SDS011;38802;50.198;19.796;2023-05-29T08:38:25;5.00;;;2.10;;
52934;SDS011;38802;50.198;19.796;2023-05-29T08:40:53;10.70;;;2.00;;
52934;SDS011;38802;50.198;19.796;2023-05-29T08:43:24;2.40;;;1.70;;
52934;SDS011;38802;50.198;19.796;2023-05-29T08:46:01;6.50;;;1.40;;
52934;SDS011;38802;50.198;19.796;2023-05-29T08:48:30;4.80;;;1.80;;
52934;SDS011;38802;50.198;19.796;2023-05-29T08:50:58;3.70;;;1.80;;
52934;SDS011;38802;50.198;19.796;2023-05-29T08:53:30;3.10;;;1.90;;
52934;SDS011;38802;50.198;19.796;2023-05-29T08:56:00;3.70;;;1.90;;
52934;SDS011;38802;50.198;19.796;2023-05-29T08:58:30;5.20;;;1.80;;
52934;SDS011;38802;50.198;19.796;2023-05-29T09:00:58;4.60;;;1.90;;
52934;SDS011;38802;50.198;19.796;2023-05-29T09:03:27;7.10;;;2.00;;
52934;SDS011;38802;50.198;19.796;2023-05-29T09:05:58;4.20;;;1.80;;
52934;SDS011;38802;50.198;19.796;2023-05-29T09:08:27;4.40;;;1.90;;
52934;SDS011;38802;50.198;19.796;2023-05-29T09:10:56;3.00;;;1.70;;
52934;SDS011;38802;50.198;19.796;2023-05-29T09:13:26;3.80;;;2.40;;
52934;SDS011;38802;50.198;19.796;2023-05-29T09:15:57;4.00;;;2.00;;
52934;SDS011;38802;50.198;19.796;2023-05-29T09:18:30;5.50;;;2.00;;
52934;SDS011;38802;50.198;19.796;2023-05-29T09:20:59;4.30;;;1.90;;
52934;SDS011;38802;50.198;19.796;2023-05-29T09:23:29;8.00;;;2.10;;
52934;SDS011;38802;50.198;19.796;2023-05-29T09:25:57;3.40;;;2.20;;
52934;SDS011;38802;50.198;19.796;2023-05-29T09:28:25;11.60;;;2.60;;
52934;SDS011;38802;50.198;19.796;2023-05-29T09:30:56;3.50;;;2.00;;
52934;SDS011;38802;50.198;19.796;2023-05-29T09:33:25;3.70;;;1.60;;
52934;SDS011;38802;50.198;19.796;2023-05-29T09:35:53;3.40;;;2.10;;
52934;SDS011;38802;50.198;19.796;2023-05-29T09:38:22;2.00;;;1.50;;
52934;SDS011;38802;50.198;19.796;2023-05-29T09:41:10;6.20;;;1.80;;
52934;SDS011;38802;50.198;19.796;2023-05-29T09:43:38;6.80;;;1.80;;
52934;SDS011;38802;50.198;19.796;2023-05-29T09:46:08;9.30;;;4.10;;
52934;SDS011;38802;50.198;19.796;2023-05-29T09:48:45;4.10;;;2.50;;
52934;SDS011;38802;50.198;19.796;2023-05-29T09:51:23;4.70;;;2.20;;
52934;SDS011;38802;50.198;19.796;2023-05-29T09:53:53;10.00;;;1.70;;
52934;SDS011;38802;50.198;19.796;2023-05-29T09:56:24;4.00;;;1.60;;
52934;SDS011;38802;50.198;19.796;2023-05-29T09:58:54;3.60;;;1.70;;
52934;SDS011;38802;50.198;19.796;2023-05-29T10:01:24;8.70;;;1.90;;
52934;SDS011;38802;50.198;19.796;2023-05-29T10:03:53;5.50;;;2.10;;
52934;SDS011;38802;50.198;19.796;2023-05-29T10:06:22;8.80;;;2.00;;
52934;SDS011;38802;50.198;19.796;2023-05-29T10:08:57;4.00;;;2.20;;
52934;SDS011;38802;50.198;19.796;2023-05-29T10:11:26;4.00;;;2.40;;
52934;SDS011;38802;50.198;19.796;2023-05-29T10:13:56;8.60;;;2.10;;
52934;SDS011;38802;50.198;19.796;2023-05-29T10:16:25;6.70;;;1.90;;
52934;SDS011;38802;50.198;19.796;2023-05-29T10:18:55;10.80;;;1.70;;
52934;SDS011;38802;50.198;19.796;2023-05-29T10:21:26;2.80;;;1.90;;
52934;SDS011;38802;50.198;19.796;2023-05-29T10:23:56;3.20;;;2.00;;
52934;SDS011;38802;50.198;19.796;2023-05-29T10:26:26;8.10;;;2.60;;
52934;SDS011;38802;50.198;19.796;2023-05-29T10:31:58;4.40;;;2.20;;
52934;SDS011;38802;50.198;19.796;2023-05-29T10:37:57;3.40;;;1.80;;
52934;SDS011;38802;50.198;19.796;2023-05-29T10:40:36;7.10;;;2.30;;
52934;SDS011;38802;50.198;19.796;2023-05-29T10:43:04;3.50;;;2.10;;
52934;SDS011;38802;50.198;19.796;2023-05-29T10:53:16;6.20;;;2.40;;
52934;SDS011;38802;50.198;19.796;2023-05-29T10:55:46;9.00;;;2.40;;
52934;SDS011;38802;50.198;19.796;2023-05-29T10:58:26;5.00;;;1.90;;
52934;SDS011;38802;50.198;19.796;2023-05-29T11:00:55;9.40;;;2.50;;
52934;SDS011;38802;50.198;19.796;2023-05-29T11:03:25;5.60;;;4.90;;
52934;SDS011;38802;50.198;19.796;2023-05-29T11:05:59;6.60;;;3.20;;
52934;SDS011;38802;50.198;19.796;2023-05-29T11:08:41;12.10;;;2.00;;
52934;SDS011;38802;50.198;19.796;2023-05-29T11:11:28;3.50;;;2.30;;
52934;SDS011;38802;50.198;19.796;2023-05-29T11:13:57;4.70;;;2.50;;
52934;SDS011;38802;50.198;19.796;2023-05-29T11:18:58;4.00;;;2.10;;
52934;SDS011;38802;50.198;19.796;2023-05-29T11:21:34;3.60;;;2.00;;
52934;SDS011;38802;50.198;19.796;2023-05-29T11:24:06;4.30;;;2.40;;
52934;SDS011;38802;50.198;19.796;2023-05-29T11:26:36;5.30;;;2.30;;
52934;SDS011;38802;50.198;19.796;2023-05-29T11:29:05;4.80;;;2.40;;
52934;SDS011;38802;50.198;19.796;2023-05-29T11:31:39;4.00;;;2.90;;
52934;SDS011;38802;50.198;19.796;2023-05-29T11:34:08;2.90;;;2.50;;
52934;SDS011;38802;50.198;19.796;2023-05-29T11:36:41;2.90;;;1.90;;
52934;SDS011;38802;50.198;19.796;2023-05-29T11:39:11;3.20;;;2.40;;
52934;SDS011;38802;50.198;19.796;2023-05-29T11:41:40;4.90;;;2.40;;
52934;SDS011;38802;50.198;19.796;2023-05-29T11:44:08;8.60;;;2.40;;
52934;SDS011;38802;50.198;19.796;2023-05-29T11:46:36;4.70;;;2.20;;
52934;SDS011;38802;50.198;19.796;2023-05-29T11:49:04;5.00;;;2.20;;
52934;SDS011;38802;50.198;19.796;2023-05-29T11:51:33;3.40;;;2.00;;
52934;SDS011;38802;50.198;19.796;2023-05-29T11:54:01;5.70;;;2.40;;
52934;SDS011;38802;50.198;19.796;2023-05-29T11:56:29;4.40;;;1.90;;
52934;SDS011;38802;50.198;19.796;2023-05-29T11:58:58;4.70;;;2.40;;
52934;SDS011;38802;50.198;19.796;2023-05-29T12:01:27;4.20;;;2.90;;
52934;SDS011;38802;50.198;19.796;2023-05-29T12:03:56;5.30;;;3.00;;
52934;SDS011;38802;50.198;19.796;2023-05-29T12:06:34;5.30;;;2.60;;
52934;SDS011;38802;50.198;19.796;2023-05-29T12:09:06;4.40;;;2.40;;
52934;SDS011;38802;50.198;19.796;2023-05-29T12:11:34;6.70;;;2.20;;
52934;SDS011;38802;50.198;19.796;2023-05-29T12:14:02;4.40;;;2.40;;
52934;SDS011;38802;50.198;19.796;2023-05-29T12:16:31;3.80;;;2.30;;
52934;SDS011;38802;50.198;19.796;2023-05-29T12:19:01;6.00;;;2.40;;
52934;SDS011;38802;50.198;19.796;2023-05-29T12:21:29;4.50;;;2.40;;
52934;SDS011;38802;50.198;19.796;2023-05-29T12:23:58;4.70;;;2.40;;
52934;SDS011;38802;50.198;19.796;2023-05-29T12:26:41;3.20;;;1.90;;
52934;SDS011;38802;50.198;19.796;2023-05-29T12:29:10;3.70;;;2.40;;
52934;SDS011;38802;50.198;19.796;2023-05-29T12:31:38;6.10;;;2.60;;
52934;SDS011;38802;50.198;19.796;2023-05-29T12:34:07;3.80;;;2.30;;
52934;SDS011;38802;50.198;19.796;2023-05-29T12:36:41;3.90;;;2.10;;
52934;SDS011;38802;50.198;19.796;2023-05-29T12:39:13;4.60;;;2.30;;
52934;SDS011;38802;50.198;19.796;2023-05-29T12:41:42;3.40;;;2.50;;
52934;SDS011;38802;50.198;19.796;2023-05-29T12:44:10;4.20;;;2.30;;
52934;SDS011;38802;50.198;19.796;2023-05-29T12:46:40;3.90;;;2.70;;
52934;SDS011;38802;50.198;19.796;2023-05-29T12:49:13;3.10;;;2.20;;
52934;SDS011;38802;50.198;19.796;2023-05-29T12:51:44;4.50;;;2.40;;
52934;SDS011;38802;50.198;19.796;2023-05-29T12:54:14;3.80;;;2.20;;
52934;SDS011;38802;50.198;19.796;2023-05-29T12:56:44;6.10;;;2.30;;
52934;SDS011;38802;50.198;19.796;2023-05-29T12:59:14;3.70;;;2.30;;
52934;SDS011;38802;50.198;19.796;2023-05-29T13:01:43;9.90;;;2.70;;
52934;SDS011;38802;50.198;19.796;2023-05-29T13:04:12;4.30;;;2.50;;
52934;SDS011;38802;50.198;19.796;2023-05-29T13:06:41;4.20;;;2.10;;
52934;SDS011;38802;50.198;19.796;2023-05-29T13:09:09;6.50;;;2.70;;
52934;SDS011;38802;50.198;19.796;2023-05-29T13:11:38;4.40;;;2.40;;
52934;SDS011;38802;50.198;19.796;2023-05-29T13:14:07;5.50;;;2.10;;
52934;SDS011;38802;50.198;19.796;2023-05-29T13:16:36;3.20;;;2.70;;
52934;SDS011;38802;50.198;19.796;2023-05-29T13:19:04;7.20;;;2.60;;
52934;SDS011;38802;50.198;19.796;2023-05-29T13:21:33;6.00;;;3.10;;
52934;SDS011;38802;50.198;19.796;2023-05-29T13:26:41;4.60;;;2.70;;
52934;SDS011;38802;50.198;19.796;2023-05-29T13:29:11;3.60;;;2.60;;
52934;SDS011;38802;50.198;19.796;2023-05-29T13:31:41;6.90;;;3.00;;
52934;SDS011;38802;50.198;19.796;2023-05-29T13:34:10;6.50;;;3.20;;
52934;SDS011;38802;50.198;19.796;2023-05-29T13:36:40;3.10;;;2.40;;
52934;SDS011;38802;50.198;19.796;2023-05-29T13:39:10;5.80;;;2.80;;
52934;SDS011;38802;50.198;19.796;2023-05-29T13:41:40;4.10;;;3.00;;
52934;SDS011;38802;50.198;19.796;2023-05-29T13:44:09;5.60;;;2.70;;
52934;SDS011;38802;50.198;19.796;2023-05-29T13:46:41;9.40;;;3.30;;
52934;SDS011;38802;50.198;19.796;2023-05-29T13:49:10;3.20;;;2.90;;
52934;SDS011;38802;50.198;19.796;2023-05-29T13:51:39;3.50;;;2.90;;
52934;SDS011;38802;50.198;19.796;2023-05-29T13:54:15;3.40;;;2.90;;
52934;SDS011;38802;50.198;19.796;2023-05-29T13:56:46;4.90;;;2.90;;
52934;SDS011;38802;50.198;19.796;2023-05-29T13:59:16;5.10;;;3.20;;
52934;SDS011;38802;50.198;19.796;2023-05-29T14:01:50;5.40;;;3.20;;
52934;SDS011;38802;50.198;19.796;2023-05-29T14:04:19;6.80;;;3.10;;
52934;SDS011;38802;50.198;19.796;2023-05-29T14:06:47;5.80;;;3.10;;
52934;SDS011;38802;50.198;19.796;2023-05-29T14:09:15;6.70;;;3.00;;
52934;SDS011;38802;50.198;19.796;2023-05-29T14:11:43;6.20;;;2.80;;
52934;SDS011;38802;50.198;19.796;2023-05-29T14:14:11;6.40;;;2.80;;
52934;SDS011;38802;50.198;19.796;2023-05-29T14:16:39;5.00;;;3.30;;
52934;SDS011;38802;50.198;19.796;2023-05-29T14:19:08;9.10;;;3.40;;
52934;SDS011;38802;50.198;19.796;2023-05-29T14:21:36;4.30;;;3.00;;
52934;SDS011;38802;50.198;19.796;2023-05-29T14:24:04;5.10;;;3.40;;
52934;SDS011;38802;50.198;19.796;2023-05-29T14:26:32;5.10;;;3.40;;
52934;SDS011;38802;50.198;19.796;2023-05-29T14:29:01;5.00;;;3.40;;
52934;SDS011;38802;50.198;19.796;2023-05-29T14:31:41;7.90;;;3.30;;
52934;SDS011;38802;50.198;19.796;2023-05-29T14:34:12;3.10;;;2.80;;
52934;SDS011;38802;50.198;19.796;2023-05-29T14:36:40;10.30;;;3.70;;
52934;SDS011;38802;50.198;19.796;2023-05-29T14:39:12;4.60;;;3.00;;
52934;SDS011;38802;50.198;19.796;2023-05-29T14:41:48;7.90;;;3.20;;
52934;SDS011;38802;50.198;19.796;2023-05-29T14:44:17;6.60;;;3.10;;
52934;SDS011;38802;50.198;19.796;2023-05-29T14:46:45;4.70;;;3.50;;
52934;SDS011;38802;50.198;19.796;2023-05-29T14:49:14;14.80;;;3.40;;
52934;SDS011;38802;50.198;19.796;2023-05-29T14:51:42;5.80;;;3.40;;
52934;SDS011;38802;50.198;19.796;2023-05-29T14:54:12;5.00;;;3.00;;
52934;SDS011;38802;50.198;19.796;2023-05-29T14:56:40;4.30;;;3.80;;
52934;SDS011;38802;50.198;19.796;2023-05-29T14:59:08;6.60;;;3.70;;
52934;SDS011;38802;50.198;19.796;2023-05-29T15:01:36;5.30;;;3.00;;
52934;SDS011;38802;50.198;19.796;2023-05-29T15:04:04;5.90;;;3.50;;
52934;SDS011;38802;50.198;19.796;2023-05-29T15:06:33;6.80;;;3.10;;
52934;SDS011;38802;50.198;19.796;2023-05-29T15:09:01;7.80;;;3.40;;
52934;SDS011;38802;50.198;19.796;2023-05-29T15:11:30;4.20;;;3.30;;
52934;SDS011;38802;50.198;19.796;2023-05-29T15:14:01;7.60;;;3.40;;
52934;SDS011;38802;50.198;19.796;2023-05-29T15:16:29;7.30;;;3.00;;
52934;SDS011;38802;50.198;19.796;2023-05-29T15:18:57;4.30;;;3.40;;
52934;SDS011;38802;50.198;19.796;2023-05-29T15:21:25;5.40;;;3.20;;
52934;SDS011;38802;50.198;19.796;2023-05-29T15:23:53;5.80;;;3.40;;
52934;SDS011;38802;50.198;19.796;2023-05-29T15:26:21;5.50;;;3.20;;
52934;SDS011;38802;50.198;19.796;2023-05-29T15:28:49;6.60;;;3.40;;
52934;SDS011;38802;50.198;19.796;2023-05-29T15:31:18;8.20;;;3.30;;